Tiempo atmosférico en la estación meteorológica de Telde, Melenara, Las Palmas (9 m.)



Fecha
DESCASC
Temp. máxima en grados centígrados (hora)
DESCASC
Temp. mínima en grados centígrados (hora)
DESCASC
Temp. media en grados centígrados
DESCASC
Racha de viento máxima en m/sg (hora)
DESCASC
Velocidad máxima media en intervalos de 10 minutos(hora)
DESCASC
Precipitaciones diarias en mm
DESCASC
Precipitaciones de 00:00 a 06:00 en mm
DESCASC
Precipitaciones de 06:00 a 12:00 en mm
DESCASC
Precipitaciones de 12:00 a 18:00 en mm
DESCASC
Precipitaciones de 18:00 a 24:00 en mm
DESCASC
16-01-2020 21.2 (13:40) 9.8 (01:00) 15.5 5 (04:20) 3.89 (06:00) 0 0 0 0 0
15-01-2020 20.9 (13:50) 10 (02:20) 15.4 6.11 (14:10) 2.78 (13:30) 0 0 0 0 0
14-01-2020 21.3 (12:50) 11.5 (23:59) 16.4 9.17 (17:10) 3.89 (14:40) 0 0 0 0 0
13-01-2020 21.2 (13:00) 12.1 (22:10) 16.7 7.78 (16:00) 4.17 (01:10) 0 0 0 0 0
12-01-2020 20.1 (13:20) 14.3 (00:00) 17.2 9.17 (06:50) 5.28 (01:50) 0 0 0 0 0
11-01-2020 20 (12:30) 17 (00:00) 18.5 10.83 (17:40) 6.11 (03:50) 0 0 0 0 0
10-01-2020 20.7 (14:10) 16.9 (00:00) 18.8 10.56 (03:40) 5.83 (23:30) 0.6 0 0.6 0 0
09-01-2020 21.1 (12:20) 17.6 (00:00) 19.4 11.11 (19:50) 6.11 (15:20) 0 0 0 0 0
08-01-2020 20.5 (14:30) 17.7 (00:00) 19.1 8.61 (22:50) 5.28 (04:30) 0 0 0 0 0
07-01-2020 20.1 (13:50) 17.4 (00:00) 18.8 10.56 (01:00) 5.83 (22:00) 0 0 0 0 0
06-01-2020 21 (11:40) 16.9 (00:00) 18.9 11.94 (06:10) 6.39 (20:00) 0.2 0 0 0 0.2
05-01-2020 21 (14:40) 15.9 (00:00) 18.4 6.94 (15:50) 3.89 (13:20) 0 0 0 0 0
04-01-2020 20.2 (12:30) 12.4 (00:00) 16.3 5 (00:50) 3.61 (08:30) 0 0 0 0 0
03-01-2020 19.8 (14:50) 12.2 (00:00) 16 8.06 (03:50) 4.17 (04:00) 0 0 0 0 0
02-01-2020 19.2 (12:10) 12.9 (00:00) 16.1 8.33 (10:40) 4.17 (10:20) 0 0 0 0 0
01-01-2020 -- (--) -- (--) -- -- (--) -- (--) 0 0 0 0 0
31-12-2019 -- (--) -- (--) -- -- (--) -- (--) -- 0 0 0 --
30-12-2019 -- (--) -- (--) -- -- (--) -- (--) 0 0 0 0 0
29-12-2019 22.4 (11:30) 11.9 (00:00) 17.1 3.89 (14:00) 2.5 (03:40) 0 0 0 0 0
28-12-2019 23.2 (13:40) 14 (00:00) 18.6 4.44 (12:40) 2.78 (00:10) 0 0 0 0 0
27-12-2019 24.7 (16:50) 14.2 (00:00) 19.5 5.83 (03:30) 4.44 (03:30) 0 0 0 0 0
26-12-2019 23.1 (12:10) 14.1 (00:00) 18.6 4.72 (11:40) 3.61 (22:40) 0 0 0 0 0
25-12-2019 23.3 (11:30) 13 (00:00) 18.1 6.94 (19:20) 4.17 (20:00) 0 0 0 0 0
24-12-2019 24.5 (14:20) 13.8 (00:00) 19.2 6.39 (14:40) 3.06 (13:20) 0 0 0 0 0
23-12-2019 21.5 (12:40) 14.1 (00:00) 17.8 6.11 (01:10) 4.17 (01:10) 0 0 0 0 0
22-12-2019 22.6 (13:00) 18.7 (00:00) 20.7 8.61 (14:00) 5.28 (13:20) 0 0 0 0 0
21-12-2019 22 (12:20) 13.7 (00:00) 17.8 7.5 (17:20) 4.72 (15:50) 0 0 0 0 0
20-12-2019 21.6 (12:20) 13.6 (00:00) 17.6 5 (15:20) 3.06 (07:20) 0 0 0 0 0
19-12-2019 21.2 (15:20) 13.1 (08:00) 17.2 7.22 (16:30) 3.61 (16:30) 0 0 0 0 0

Gráficas

Temp. máximas Temp. mínimas Temp. medias Precipitaciones Rachas de viento máximas Velocidades máximas media en intervalos de 10 minutos

Datos horarios

Fecha y hora oficial Temperatura (ºC) Velocidad del viento (km/h) Dirección del viento Racha (km/h) Dirección de racha Precipitación (mm) Presión (hPa) Tendencia (hPa) Humedad (%)
2020-01-17 23:00:00 14.6 12 Oeste 16 Noroeste 0 -- -- 60
2020-01-17 22:00:00 14.8 12 Noroeste 16 Noroeste 0 -- -- 54
2020-01-17 21:00:00 14.4 10 Oeste 14 Oeste 0 -- -- 49
2020-01-17 20:00:00 15.1 9 Oeste 12 Oeste 0 -- -- 50
2020-01-17 19:00:00 16.6 5 Oeste 5 Oeste 0 -- -- 65
2020-01-17 18:00:00 19 4 Este 10 Este 0 -- -- 58
2020-01-17 17:00:00 19.7 4 Este 10 Este 0 -- -- 55
2020-01-17 16:00:00 20 6 Este 13 Este 0 -- -- 53
2020-01-17 15:00:00 20.4 6 Sudeste 14 Sudeste 0 -- -- 52
2020-01-17 14:00:00 20.4 6 Este 12 Este 0 -- -- 53
2020-01-17 13:00:00 20.3 6 Este 17 Sudeste 0 -- -- 54
2020-01-17 12:00:00 20.5 8 Sudeste 15 Este 0 -- -- 50
2020-01-17 11:00:00 20.1 4 Este 12 Este 0 -- -- 44
2020-01-17 10:00:00 18.8 0 Calma 9 Noroeste 0 -- -- 48
2020-01-17 09:00:00 14.2 4 Oeste 10 Oeste 0 -- -- 59
2020-01-17 08:00:00 12.2 10 Oeste 17 Oeste 0 -- -- 57
2020-01-17 07:00:00 12.8 12 Oeste 19 Oeste 0 -- -- 58
2020-01-17 06:00:00 12.9 13 Oeste 18 Oeste 0 -- -- 49
2020-01-17 05:00:00 12.6 13 Oeste 17 Oeste 0 -- -- 45
2020-01-17 04:00:00 12.7 12 Oeste 15 Oeste 0 -- -- 41
2020-01-17 03:00:00 13.7 13 Oeste 17 Oeste 0 -- -- 40
2020-01-17 02:00:00 13.7 12 Oeste 17 Oeste 0 -- -- 43
2020-01-17 01:00:00 13.2 11 Oeste 14 Oeste 0 -- -- 45
2020-01-17 00:00:00 12.8 9 Oeste 13 Oeste 0 -- -- 45
2020-01-16 23:00:00 12.9 7 Noroeste 14 Oeste 0 -- -- 44
2020-01-16 22:00:00 13.1 10 Oeste 14 Oeste 0 -- -- 44
2020-01-16 21:00:00 13.2 8 Oeste 11 Oeste 0 -- -- 48
2020-01-16 20:00:00 14.2 4 Oeste 8 Oeste 0 -- -- 54
2020-01-16 19:00:00 16.8 0 Calma 5 Este 0 -- -- 59
2020-01-16 18:00:00 19.2 3 Este 8 Este 0 -- -- 52
2020-01-16 17:00:00 19.9 4 Este 9 Sudeste 0 -- -- 49
2020-01-16 16:00:00 20.3 7 Este 15 Sudeste 0 -- -- 48
2020-01-16 15:00:00 20.8 7 Sudeste 15 Sudeste 0 -- -- 45
2020-01-16 14:00:00 21.1 6 Sudeste 15 Sudeste 0 -- -- 53
2020-01-16 13:00:00 21.1 6 Sudeste 13 Sudeste 0 -- -- 53
2020-01-16 12:00:00 20.6 4 Sudeste 10 Este 0 -- -- 57
2020-01-16 11:00:00 20 5 Sudeste 9 Este 0 -- -- 58
2020-01-16 10:00:00 19.2 2 Sudeste 9 Oeste 0 -- -- 60
2020-01-16 09:00:00 14.7 8 Oeste 15 Oeste 0 -- -- 64
2020-01-16 08:00:00 12 7 Oeste 15 Oeste 0 -- -- 66
2020-01-16 07:00:00 12.4 10 Oeste 18 Oeste 0 -- -- 44
2020-01-16 06:00:00 12.1 14 Oeste 17 Oeste 0 -- -- 44
2020-01-16 05:00:00 11.9 9 Oeste 18 Oeste 0 -- -- 55
2020-01-16 04:00:00 11.6 3 Oeste 13 Oeste 0 -- -- 71
2020-01-16 03:00:00 12 8 Oeste 14 Oeste 0 -- -- 55
2020-01-16 02:00:00 10.9 6 Oeste 9 Oeste 0 -- -- 63
2020-01-16 01:00:00 9.8 2 Oeste 6 Oeste 0 -- -- 56
2020-01-16 00:00:00 10.3 2 Oeste 9 Oeste 0 -- -- 52
2020-01-15 23:00:00 11.5 6 Oeste 8 Oeste 0 -- -- 64
2020-01-15 22:00:00 11.9 3 Sudoeste 5 Sudoeste 0 -- -- 67
2020-01-15 21:00:00 12.8 3 Sudoeste 5 Sudoeste 0 -- -- 64
2020-01-15 20:00:00 13.9 3 Oeste 5 Oeste 0 -- -- 62
2020-01-15 19:00:00 17.5 2 Sudoeste 8 Sur 0 -- -- 56
2020-01-15 18:00:00 19.1 3 Sudeste 12 Sudeste 0 -- -- 51
2020-01-15 17:00:00 19.8 6 Sudeste 13 Sudeste 0 -- -- 47
2020-01-15 16:00:00 20.1 7 Sudeste 19 Sudeste 0 -- -- 55
2020-01-15 15:00:00 20.6 8 Sudeste 22 Sudeste 0 -- -- 49
2020-01-15 14:00:00 20.9 7 Sudeste 19 Sur 0 -- -- 45
2020-01-15 13:00:00 20.7 8 Sudeste 19 Sur 0 -- -- 49
2020-01-15 12:00:00 20.4 8 Sudeste 18 Sudeste 0 -- -- 55
2020-01-15 11:00:00 20.3 6 Sudeste 12 Sudeste 0 -- -- 54
2020-01-15 10:00:00 18.6 3 Sur 6 Sur 0 -- -- 59
2020-01-15 09:00:00 13.2 2 Oeste 5 Sudoeste 0 -- -- 74
2020-01-15 08:00:00 11 3 Oeste 5 Oeste 0 -- -- 78
2020-01-15 07:00:00 11.1 5 Oeste 8 Oeste 0 -- -- 72
2020-01-15 06:00:00 11.1 5 Oeste 8 Oeste 0 -- -- 66
2020-01-15 05:00:00 11 5 Oeste 8 Oeste 0 -- -- 55
2020-01-15 04:00:00 10 4 Oeste 8 Oeste 0 -- -- 58
2020-01-15 03:00:00 10.1 0 Calma 6 Oeste 0 -- -- 55
2020-01-15 02:00:00 10.3 5 Oeste 6 Oeste 0 -- -- 52
2020-01-15 01:00:00 11.5 6 Oeste 12 Oeste 0 -- -- 46
2020-01-15 00:00:00 11.5 7 Oeste 10 Noroeste 0 -- -- 47
2020-01-14 23:00:00 14.1 3 Sur 10 Sur 0 -- -- 46
2020-01-14 22:00:00 15.4 2 Sur 10 Sur 0 -- -- 47
2020-01-14 21:00:00 16.5 5 Sur 13 Sudoeste 0 -- -- 47
2020-01-14 20:00:00 17.2 7 Sur 20 Sur 0 -- -- 50
2020-01-14 19:00:00 18.1 8 Sur 22 Sudeste 0 -- -- 50
2020-01-14 18:00:00 18.8 13 Sur 33 Sudeste 0 -- -- 52
2020-01-14 17:00:00 19.8 12 Sur 29 Sur 0 -- -- 47
2020-01-14 16:00:00 20.5 12 Sur 31 Sur 0 -- -- 46
2020-01-14 15:00:00 20.5 12 Sur 31 Sudeste 0 -- -- 48
2020-01-14 14:00:00 21.1 10 Sur 23 Sur 0 -- -- 48
2020-01-14 13:00:00 21.2 9 Sudeste 26 Sur 0 -- -- 43
2020-01-14 12:00:00 20.8 12 Sur 26 Sur 0 -- -- 43
2020-01-14 11:00:00 20.5 12 Sur 24 Sudeste 0 -- -- 45
2020-01-14 10:00:00 19.8 8 Sur 20 Sudeste 0 -- -- 46
2020-01-14 09:00:00 17.4 7 Sur 16 Sudoeste 0 -- -- 56
2020-01-14 08:00:00 15.7 4 Sudoeste 15 Sur 0 -- -- 69
2020-01-14 07:00:00 14 5 Sudoeste 9 Sudoeste 0 -- -- 77
2020-01-14 06:00:00 13.1 4 Oeste 8 Sudoeste 0 -- -- 75
2020-01-14 05:00:00 12.9 3 Oeste 8 Sudoeste 0 -- -- 75
2020-01-14 04:00:00 13.3 3 Sudoeste 7 Sudoeste 0 -- -- 70
2020-01-14 03:00:00 13.8 3 Sudoeste 6 Sudoeste 0 -- -- 78
2020-01-14 02:00:00 14 4 Sudoeste 8 Sudoeste 0 -- -- 76
2020-01-14 01:00:00 15.9 5 Sudoeste 15 Este 0 -- -- 65
2020-01-14 00:00:00 12.3 0 Calma 6 Sur 0 -- -- 63
2020-01-13 23:00:00 13.4 4 Sudoeste 9 Sur 0 -- -- 58
2020-01-13 22:00:00 12.4 0 Calma 3 Noroeste 0 -- -- 51
2020-01-13 21:00:00 14.8 0 Calma 6 Sur 0 -- -- 48
2020-01-13 20:00:00 17.9 3 Sur 10 Sudoeste 0 -- -- 37
2020-01-13 19:00:00 19 6 Sur 19 Sudoeste 0 -- -- 34
2020-01-13 18:00:00 19.6 9 Sur 26 Sur 0 -- -- 52
2020-01-13 17:00:00 20.2 8 Sur 26 Sudeste 0 -- -- 51
2020-01-13 16:00:00 20.4 13 Sur 28 Sur 0 -- -- 50
2020-01-13 15:00:00 20.8 9 Sudeste 26 Sur 0 -- -- 52
2020-01-13 14:00:00 21 10 Sudeste 23 Sudeste 0 -- -- 52
2020-01-13 13:00:00 21.2 9 Sur 23 Sur 0 -- -- 54
2020-01-13 12:00:00 20.6 8 Sudeste 19 Este 0 -- -- 63
2020-01-13 11:00:00 20.1 7 Sudeste 12 Sudeste 0 -- -- 59
2020-01-13 10:00:00 19.2 3 Sudeste 9 Oeste 0 -- -- 63
2020-01-13 09:00:00 15.6 6 Oeste 16 Oeste 0 -- -- 73
2020-01-13 08:00:00 14.1 9 Oeste 15 Oeste 0 -- -- 75
2020-01-13 07:00:00 14 12 Oeste 15 Oeste 0 -- -- 75
2020-01-13 06:00:00 14 6 Oeste 15 Oeste 0 -- -- 70
2020-01-13 05:00:00 13.5 9 Oeste 14 Oeste 0 -- -- 67
2020-01-13 04:00:00 13.7 11 Oeste 16 Oeste 0 -- -- 71
2020-01-13 03:00:00 13.7 11 Oeste 16 Oeste 0 -- -- 70
2020-01-13 02:00:00 14 9 Oeste 21 Oeste 0 -- -- 68
2020-01-13 01:00:00 14.6 10 Oeste 19 Oeste 0 -- -- 67
2020-01-13 00:00:00 14.3 11 Noroeste 21 Oeste 0 -- -- 66
2020-01-12 23:00:00 14.7 11 Oeste 17 Oeste 0 -- -- 60
2020-01-12 22:00:00 15.1 12 Oeste 17 Oeste 0 -- -- 56
2020-01-12 21:00:00 15.1 10 Oeste 15 Oeste 0 -- -- 58
2020-01-12 20:00:00 15.1 10 Oeste 12 Oeste 0 -- -- 64
2020-01-12 19:00:00 17.8 5 Nordeste 10 Nordeste 0 -- -- 57
2020-01-12 18:00:00 18.6 5 Nordeste 14 Este 0 -- -- 55
2020-01-12 17:00:00 19.7 8 Este 14 Este 0 -- -- 50
2020-01-12 16:00:00 19.7 8 Este 15 Nordeste 0 -- -- 57
2020-01-12 15:00:00 19.9 8 Este 18 Este 0 -- -- 54
2020-01-12 14:00:00 20 12 Este 19 Nordeste 0 -- -- 57
2020-01-12 13:00:00 20 14 Nordeste 24 Nordeste 0 -- -- 55
2020-01-12 12:00:00 19.2 16 Nordeste 23 Nordeste 0 -- -- 58
2020-01-12 11:00:00 19.5 12 Nordeste 23 Nordeste 0 -- -- 50
2020-01-12 10:00:00 18.8 12 Nordeste 25 Norte 0 -- -- 55
2020-01-12 09:00:00 18.3 13 Norte 27 Norte 0 -- -- 54
2020-01-12 08:00:00 18 14 Norte 25 Norte 0 -- -- 60
2020-01-12 07:00:00 17.8 18 Norte 33 Nordeste 0 -- -- 54
2020-01-12 06:00:00 17.8 15 Norte 29 Nordeste 0 -- -- 65
2020-01-12 05:00:00 17.9 16 Norte 27 Nordeste 0 -- -- 65
2020-01-12 04:00:00 17.8 13 Norte 26 Nordeste 0 -- -- 65
2020-01-12 03:00:00 17.2 6 Noroeste 25 Norte 0 -- -- 69
2020-01-12 02:00:00 17.9 15 Norte 31 Norte 0 -- -- 65
2020-01-12 01:00:00 17.8 13 Norte 31 Norte 0 -- -- 64
2020-01-12 00:00:00 17.9 13 Norte 26 Norte 0 -- -- 65
2020-01-11 23:00:00 17.7 15 Norte 28 Nordeste 0 -- -- 65
2020-01-11 22:00:00 17.1 12 Noroeste 25 Noroeste 0 -- -- 73
2020-01-11 21:00:00 17.4 13 Noroeste 32 Norte 0 -- -- 65
2020-01-11 20:00:00 17.8 13 Norte 35 Norte 0 -- -- 62
2020-01-11 19:00:00 18.1 15 Norte 36 Norte 0 -- -- 58
2020-01-11 18:00:00 18.1 14 Norte 39 Norte 0 -- -- 62
2020-01-11 17:00:00 18 17 Norte 33 Norte 0 -- -- 69
2020-01-11 16:00:00 18.7 13 Noroeste 30 Norte 0 -- -- 65
2020-01-11 15:00:00 19.6 15 Norte 32 Norte 0 -- -- 59
2020-01-11 14:00:00 19.5 17 Norte 35 Norte 0 -- -- 59
2020-01-11 13:00:00 19.2 20 Nordeste 31 Nordeste 0 -- -- 65
2020-01-11 12:00:00 19.7 13 Norte 32 Nordeste 0 -- -- 56
2020-01-11 11:00:00 19.6 16 Norte 29 Norte 0 -- -- 55
2020-01-11 10:00:00 18.4 9 Noroeste 25 Norte 0 -- -- 59
2020-01-11 09:00:00 18.3 15 Norte 30 Norte 0 -- -- 57
2020-01-11 08:00:00 17.9 14 Noroeste 30 Norte 0 -- -- 59
2020-01-11 07:00:00 17.9 14 Norte 35 Norte 0 -- -- 62
2020-01-11 06:00:00 17.9 15 Norte 35 Norte 0 -- -- 61
2020-01-11 05:00:00 18 18 Norte 31 Nordeste 0 -- -- 61
2020-01-11 04:00:00 18.2 17 Norte 33 Nordeste 0 -- -- 65
2020-01-11 03:00:00 18.2 15 Norte 31 Norte 0 -- -- 68
2020-01-11 02:00:00 18.4 16 Norte 31 Norte 0 -- -- 69
2020-01-11 01:00:00 18.1 14 Norte 26 Norte 0 -- -- 75
2020-01-11 00:00:00 17 11 Noroeste 36 Norte 0 -- -- 80
2020-01-10 23:00:00 18.4 12 Norte 30 Norte 0 -- -- 71
2020-01-10 22:00:00 18.9 16 Norte 30 Norte 0 -- -- 67
2020-01-10 21:00:00 18.9 15 Norte 30 Norte 0 -- -- 72
2020-01-10 20:00:00 19.2 15 Norte 30 Noroeste 0 -- -- 70
2020-01-10 19:00:00 19.4 13 Norte 27 Nordeste 0 -- -- 56
2020-01-10 18:00:00 19.4 13 Norte 29 Norte 0 -- -- 65
2020-01-10 17:00:00 19.5 17 Norte 33 Norte 0 -- -- 63
2020-01-10 16:00:00 19.4 17 Norte 32 Norte 0 -- -- 65
2020-01-10 15:00:00 20.3 17 Norte 35 Norte 0 -- -- 60
2020-01-10 14:00:00 20.4 18 Norte 33 Norte 0 -- -- 64
2020-01-10 13:00:00 20.1 17 Norte 31 Norte 0 -- -- 66
2020-01-10 12:00:00 19.6 15 Norte 38 Norte 0 -- -- 70
2020-01-10 11:00:00 18.5 11 Norte 36 Nordeste 0.4 -- -- 81
2020-01-10 10:00:00 18.6 13 Norte 35 Nordeste 0.2 -- -- 78
2020-01-10 09:00:00 18.3 14 Norte 25 Norte 0 -- -- 77
2020-01-10 08:00:00 17.3 10 Noroeste 26 Noroeste 0 -- -- 80
2020-01-10 07:00:00 17.7 16 Norte 33 Noroeste 0 -- -- 80
2020-01-10 06:00:00 18.4 13 Norte 27 Nordeste 0 -- -- 74
2020-01-10 05:00:00 18.3 15 Norte 31 Nordeste 0 -- -- 71
2020-01-10 04:00:00 18.5 15 Norte 38 Norte 0 -- -- 71
2020-01-10 03:00:00 18.4 16 Norte 34 Nordeste 0 -- -- 68
2020-01-10 02:00:00 18.3 16 Norte 28 Norte 0 -- -- 71
2020-01-10 01:00:00 18.5 15 Norte 30 Norte 0 -- -- 62
2020-01-10 00:00:00 18.5 14 Norte 34 Norte 0 -- -- 60
2020-01-09 23:00:00 18.6 17 Norte 36 Norte 0 -- -- 58
2020-01-09 22:00:00 18.5 15 Norte 37 Norte 0 -- -- 58
2020-01-09 21:00:00 18.7 21 Norte 35 Norte 0 -- -- 62
2020-01-09 20:00:00 18.7 19 Norte 40 Norte 0 -- -- 62
2020-01-09 19:00:00 18.7 20 Norte 40 Norte 0 -- -- 59
2020-01-09 18:00:00 19.1 15 Norte 32 Norte 0 -- -- 63
2020-01-09 17:00:00 19.3 17 Norte 30 Norte 0 -- -- 59
2020-01-09 16:00:00 20.2 20 Norte 36 Noroeste 0 -- -- 57
2020-01-09 15:00:00 20.7 22 Norte 37 Norte 0 -- -- 52
2020-01-09 14:00:00 20.8 19 Norte 34 Norte 0 -- -- 52
2020-01-09 13:00:00 20.7 18 Norte 34 Nordeste 0 -- -- 52
2020-01-09 12:00:00 20.6 18 Norte 34 Noroeste 0 -- -- 47
2020-01-09 11:00:00 19.9 16 Norte 30 Norte 0 -- -- 52
2020-01-09 10:00:00 19.6 14 Norte 31 Norte 0 -- -- 57
2020-01-09 09:00:00 18.7 13 Norte 30 Norte 0 -- -- 59
2020-01-09 08:00:00 18 13 Norte 30 Nordeste 0 -- -- 64
2020-01-09 07:00:00 17.8 14 Norte 28 Norte 0 -- -- 65
2020-01-09 06:00:00 17.8 12 Norte 23 Nordeste 0 -- -- 66
2020-01-09 05:00:00 17.7 16 Norte 30 Nordeste 0 -- -- 65
2020-01-09 04:00:00 17.9 19 Nordeste 31 Nordeste 0 -- -- 66
2020-01-09 03:00:00 17.7 11 Norte 22 Norte 0 -- -- 62
2020-01-09 02:00:00 17.8 9 Norte 24 Norte 0 -- -- 65
2020-01-09 01:00:00 17.9 14 Norte 29 Norte 0 -- -- 63
2020-01-09 00:00:00 18.1 15 Norte 28 Norte 0 -- -- 63
2020-01-08 23:00:00 18.3 18 Norte 31 Norte 0 -- -- 65
2020-01-08 22:00:00 18.2 14 Norte 29 Norte 0 -- -- 64
2020-01-08 21:00:00 18.2 14 Norte 28 Norte 0 -- -- 63
2020-01-08 20:00:00 18.3 15 Norte 31 Nordeste 0 -- -- 62
2020-01-08 19:00:00 18.4 18 Norte 30 Nordeste 0 -- -- 62
2020-01-08 18:00:00 18.7 15 Norte 28 Norte 0 -- -- 64
2020-01-08 17:00:00 19.3 12 Norte 22 Norte 0 -- -- 59
2020-01-08 16:00:00 19.8 15 Norte 26 Nordeste 0 -- -- 60
2020-01-08 15:00:00 19.8 17 Nordeste 28 Norte 0 -- -- 61
2020-01-08 14:00:00 20.2 16 Nordeste 24 Norte 0 -- -- 57
2020-01-08 13:00:00 20.2 14 Nordeste 25 Nordeste 0 -- -- 58
2020-01-08 12:00:00 19.5 15 Nordeste 23 Este 0 -- -- 64
2020-01-08 11:00:00 19.6 16 Nordeste 25 Nordeste 0 -- -- 65
2020-01-08 10:00:00 18.8 14 Nordeste 23 Nordeste 0 -- -- 61
2020-01-08 09:00:00 18 14 Nordeste 26 Este 0 -- -- 64
2020-01-08 08:00:00 17.7 12 Nordeste 24 Nordeste 0 -- -- 67
2020-01-08 07:00:00 17.8 16 Nordeste 27 Norte 0 -- -- 61
2020-01-08 06:00:00 17.7 12 Norte 26 Norte 0 -- -- 66
2020-01-08 05:00:00 17.9 18 Nordeste 29 Norte 0 -- -- 63
2020-01-08 04:00:00 17.9 14 Norte 30 Nordeste 0 -- -- 64
2020-01-08 03:00:00 18 18 Nordeste 28 Norte 0 -- -- 65
2020-01-08 02:00:00 17.8 13 Norte 27 Norte 0 -- -- 65
2020-01-08 01:00:00 18 14 Nordeste 28 Norte 0 -- -- 67
2020-01-08 00:00:00 18 13 Norte 27 Norte 0 -- -- 66
2020-01-07 23:00:00 18.3 15 Nordeste 32 Nordeste 0 -- -- 66
2020-01-07 22:00:00 18.4 21 Nordeste 32 Norte 0 -- -- 68
2020-01-07 21:00:00 18.5 20 Nordeste 30 Nordeste 0 -- -- 71
2020-01-07 20:00:00 18.6 15 Nordeste 28 Nordeste 0 -- -- 70
2020-01-07 19:00:00 18.7 16 Nordeste 26 Nordeste 0 -- -- 69
2020-01-07 18:00:00 18.9 13 Norte 21 Norte 0 -- -- 67
2020-01-07 17:00:00 19.4 10 Norte 19 Norte 0 -- -- 60
2020-01-07 16:00:00 19.8 11 Norte 21 Nordeste 0 -- -- 58
2020-01-07 15:00:00 19.8 13 Nordeste 19 Norte 0 -- -- 57
2020-01-07 14:00:00 20 12 Nordeste 22 Norte 0 -- -- 57
2020-01-07 13:00:00 19.9 12 Nordeste 23 Este 0 -- -- 58
2020-01-07 12:00:00 19.7 17 Nordeste 27 Nordeste 0 -- -- 57
2020-01-07 11:00:00 19.4 16 Nordeste 22 Nordeste 0 -- -- 59
2020-01-07 10:00:00 18.8 17 Nordeste 29 Este 0 -- -- 57
2020-01-07 09:00:00 18.1 18 Nordeste 31 Nordeste 0 -- -- 62
2020-01-07 08:00:00 17.5 19 Nordeste 29 Nordeste 0 -- -- 64
2020-01-07 07:00:00 17.4 18 Nordeste 27 Nordeste 0 -- -- 66
2020-01-07 06:00:00 17.7 19 Nordeste 27 Nordeste 0 -- -- 64
2020-01-07 05:00:00 17.8 14 Nordeste 25 Este 0 -- -- 63
2020-01-07 04:00:00 17.8 11 Norte 30 Norte 0 -- -- 67
2020-01-07 03:00:00 17.4 9 Norte 23 Norte 0 -- -- 73
2020-01-07 02:00:00 17.6 13 Norte 37 Norte 0 -- -- 71
2020-01-07 01:00:00 18.1 18 Norte 38 Norte 0 -- -- 72
2020-01-07 00:00:00 18.1 16 Norte 31 Nordeste 0 -- -- 64
2020-01-06 23:00:00 18.1 17 Norte 35 Nordeste 0 -- -- 66
2020-01-06 22:00:00 18 18 Norte 42 Norte 0 -- -- 65
2020-01-06 21:00:00 17.2 19 Norte 38 Norte 0.2 -- -- 73
2020-01-06 20:00:00 18.6 23 Norte 35 Norte 0 -- -- 66
2020-01-06 19:00:00 18.3 18 Norte 35 Norte 0 -- -- 63
2020-01-06 18:00:00 18.8 18 Norte 37 Norte 0 -- -- 62
2020-01-06 17:00:00 19.6 18 Norte 37 Norte 0 -- -- 58
2020-01-06 16:00:00 20 22 Norte 35 Noroeste 0 -- -- 59
2020-01-06 15:00:00 20.2 18 Norte 32 Norte 0 -- -- 57
2020-01-06 14:00:00 20.7 18 Norte 32 Norte 0 -- -- 55
2020-01-06 13:00:00 20.7 18 Norte 37 Norte 0 -- -- 56
2020-01-06 12:00:00 20.8 17 Norte 34 Norte 0 -- -- 51
2020-01-06 11:00:00 20.5 18 Norte 37 Noroeste 0 -- -- 52
2020-01-06 10:00:00 19.9 21 Norte 35 Norte 0 -- -- 56
2020-01-06 09:00:00 18.3 15 Norte 31 Norte 0 -- -- 60